CheckWX is a tool to help pilots better visualize weather data.  It is not intended as a substitute for an official pre-flight weather briefing.

01:11:55 UTC

KAFW METAR
Fort Worth Alliance Airport
Fort Worth, Texas, USA
Current

19 mins ago

KAFW 200053Z 17019G24KT 10SM BKN300 33/20 A2988 RMK AO2 PK WND 17026/0041 SLP101 T03330200
Observed
Jul-20 @ 00:53 UTC
Wind
  • 170° at 19 KTS
  • Gusting to 24 KTS
Visibility
10 SM
Flight Rules
VFR
Cloud Levels
  • Broken at 30,000' AGL
Temperature
33°C / 91°F
Dewpoint
20°C / 68°F
Heat Index
35°C / 95°F
Humidity
46%
Altimeter
29.88" Hg
Pressure
1011.82 hPa
Previous

1 hour ago

KAFW 192353Z 17016KT 10SM FEW060 BKN300 34/21 A2988 RMK AO2 PK WND 16026/2305 SLP100 T03440206 10356 20333 55010
Observed
Jul-19 @ 23:53 UTC
Wind
  • 170° at 16 KTS
Visibility
10 SM
Flight Rules
VFR
Cloud Levels
  • Few at 6,000' AGL
  • Broken at 30,000' AGL
Temperature
34°C / 93°F
Dewpoint
21°C / 70°F
Heat Index
37°C / 99°F
Humidity
47%
Altimeter
29.88" Hg
Pressure
1011.82 hPa
Previous

2 hours ago

KAFW 192253Z 18014KT 10SM FEW060 BKN300 35/21 A2988 RMK AO2 SLP099 T03500211
Observed
Jul-19 @ 22:53 UTC
Wind
  • 180° at 14 KTS
Visibility
10 SM
Flight Rules
VFR
Cloud Levels
  • Few at 6,000' AGL
  • Broken at 30,000' AGL
Temperature
35°C / 95°F
Dewpoint
21°C / 70°F
Heat Index
38°C / 101°F
Humidity
44%
Altimeter
29.88" Hg
Pressure
1011.82 hPa